createdAt,value
2018-04-25T00:01:11.213Z,11.20
2018-04-25T00:03:38.733Z,11.10
2018-04-25T00:06:06.262Z,11.10
2018-04-25T00:08:33.779Z,11.20
2018-04-25T00:11:01.296Z,11.20
2018-04-25T00:13:28.825Z,11.20
2018-04-25T00:15:57.135Z,11.30
2018-04-25T00:18:25.386Z,11.40
2018-04-25T00:20:52.926Z,11.40
2018-04-25T00:23:20.460Z,11.40
2018-04-25T00:25:48.009Z,11.40
2018-04-25T00:28:15.537Z,11.50
2018-04-25T00:30:43.050Z,11.50
2018-04-25T00:33:10.578Z,11.50
2018-04-25T00:35:38.353Z,11.50
2018-04-25T00:38:05.848Z,11.50
2018-04-25T00:40:33.356Z,11.50
2018-04-25T00:43:01.666Z,11.40
2018-04-25T00:45:29.201Z,11.40
2018-04-25T00:47:56.736Z,11.40
2018-04-25T00:50:24.264Z,11.50
2018-04-25T00:52:52.566Z,11.60
2018-04-25T00:55:20.079Z,11.60
2018-04-25T00:57:47.601Z,11.50
2018-04-25T01:00:15.128Z,11.40
2018-04-25T01:02:42.639Z,11.40
2018-04-25T01:05:10.172Z,11.40
2018-04-25T01:07:37.705Z,11.40
2018-04-25T01:10:05.211Z,11.40
2018-04-25T01:12:32.713Z,11.50
2018-04-25T01:15:01.011Z,11.50
2018-04-25T01:17:29.322Z,11.50
2018-04-25T01:19:56.846Z,11.50
2018-04-25T01:22:24.359Z,11.50
2018-04-25T01:24:55.700Z,11.50
2018-04-25T01:27:23.986Z,11.40
2018-04-25T01:29:52.254Z,11.30
2018-04-25T01:32:19.747Z,11.30
2018-04-25T01:34:53.444Z,11.30
2018-04-25T01:37:22.892Z,11.30
2018-04-25T01:39:51.203Z,11.20
2018-04-25T01:42:41.118Z,11.20
2018-04-25T01:48:09.119Z,11.00
2018-04-25T01:50:37.390Z,10.90
2018-04-25T01:53:16.719Z,10.90
2018-04-25T01:55:56.913Z,10.80
2018-04-25T01:58:36.430Z,10.80
2018-04-25T02:01:16.590Z,10.70
2018-04-25T02:04:02.541Z,10.70
2018-04-25T02:06:30.019Z,10.60
2018-04-25T02:08:57.492Z,10.70
2018-04-25T02:11:24.963Z,10.60
2018-04-25T02:13:52.443Z,10.60
2018-04-25T02:16:19.911Z,10.50
2018-04-25T02:18:47.373Z,10.50
2018-04-25T02:21:14.842Z,10.40
2018-04-25T02:23:42.322Z,10.30
2018-04-25T02:26:09.811Z,10.10
2018-04-25T02:28:37.281Z,10.00
2018-04-25T02:31:04.751Z,10.00
2018-04-25T02:33:32.218Z,10.00
2018-04-25T02:35:59.683Z,9.80
2018-04-25T02:38:27.163Z,9.70
2018-04-25T02:40:55.399Z,9.70
2018-04-25T02:43:22.893Z,9.70
2018-04-25T02:45:50.357Z,9.60
2018-04-25T02:48:17.818Z,9.60
2018-04-25T02:50:45.277Z,9.50
2018-04-25T02:53:12.750Z,9.30
2018-04-25T02:55:40.250Z,9.20
2018-04-25T02:58:07.726Z,9.20
2018-04-25T03:00:35.198Z,9.30
2018-04-25T03:03:02.661Z,9.20
2018-04-25T03:05:30.139Z,9.30
2018-04-25T03:07:57.598Z,9.40
2018-04-25T03:10:25.062Z,9.30
2018-04-25T03:12:52.632Z,9.40
2018-04-25T03:15:20.070Z,9.30
2018-04-25T03:17:47.539Z,9.40
2018-04-25T03:20:15.010Z,9.40
2018-04-25T03:22:42.483Z,9.40
2018-04-25T03:25:09.950Z,9.40
2018-04-25T03:27:37.419Z,9.40
2018-04-25T03:30:04.901Z,9.40
2018-04-25T03:32:32.353Z,9.40
2018-04-25T03:34:59.813Z,9.40
2018-04-25T03:37:28.038Z,9.50
2018-04-25T03:39:55.514Z,9.50
2018-04-25T03:42:22.978Z,9.60
2018-04-25T03:44:50.454Z,9.50
2018-04-25T03:47:17.922Z,9.60
2018-04-25T03:49:45.390Z,9.70
2018-04-25T03:52:12.866Z,9.70
2018-04-25T03:54:40.330Z,9.70
2018-04-25T03:57:07.799Z,9.70
2018-04-25T03:59:35.300Z,9.60
2018-04-25T04:02:02.753Z,9.60
2018-04-25T04:04:30.227Z,9.80
2018-04-25T04:06:57.689Z,9.70
2018-04-25T04:09:25.162Z,9.70
2018-04-25T04:11:52.637Z,9.80
2018-04-25T04:14:20.101Z,9.80
2018-04-25T04:16:47.561Z,9.80
2018-04-25T04:19:15.026Z,9.80
2018-04-25T04:21:42.497Z,9.80
2018-04-25T04:24:10.659Z,9.80
2018-04-25T04:26:38.162Z,9.80
2018-04-25T04:29:05.635Z,9.70
2018-04-25T04:31:33.114Z,9.60
2018-04-25T04:34:00.573Z,9.60
2018-04-25T04:36:28.918Z,9.60
2018-04-25T04:38:56.386Z,9.60
2018-04-25T04:41:23.849Z,9.60
2018-04-25T04:43:52.087Z,9.70
2018-04-25T04:46:19.642Z,9.70
2018-04-25T04:48:47.300Z,9.80
2018-04-25T04:51:14.765Z,9.90
2018-04-25T04:53:42.221Z,10.10
2018-04-25T04:56:10.461Z,10.40
2018-04-25T04:58:37.921Z,10.40
2018-04-25T05:01:05.385Z,10.50
2018-04-25T05:03:32.845Z,10.70
2018-04-25T05:06:00.313Z,10.80
2018-04-25T05:08:27.853Z,10.90
2018-04-25T05:10:55.246Z,11.00
2018-04-25T05:13:22.718Z,11.00
2018-04-25T05:15:50.197Z,11.10
2018-04-25T05:18:17.679Z,11.20
2018-04-25T05:20:45.153Z,11.30
2018-04-25T05:23:12.631Z,11.30
2018-04-25T05:25:40.097Z,11.40
2018-04-25T05:28:07.719Z,11.50
2018-04-25T05:30:35.937Z,11.70
2018-04-25T05:33:03.434Z,11.70
2018-04-25T05:35:30.915Z,11.90
2018-04-25T05:37:58.375Z,12.10
2018-04-25T05:40:25.843Z,12.30
2018-04-25T05:42:53.306Z,12.50
2018-04-25T05:45:20.780Z,12.60
2018-04-25T05:47:48.255Z,12.80
2018-04-25T05:50:15.727Z,12.80
2018-04-25T05:52:43.189Z,12.80
2018-04-25T05:55:10.678Z,13.10
2018-04-25T05:57:38.146Z,13.30
2018-04-25T06:00:05.618Z,13.50
2018-04-25T06:02:33.086Z,13.70
2018-04-25T06:05:00.550Z,14.00
2018-04-25T06:07:28.019Z,14.20
2018-04-25T06:09:55.495Z,14.70
2018-04-25T06:12:22.991Z,14.90
2018-04-25T06:14:50.437Z,15.80
2018-04-25T06:17:19.473Z,16.90
2018-04-25T06:19:47.703Z,18.70
2018-04-25T06:22:15.174Z,18.70
2018-04-25T06:24:42.642Z,19.20
2018-04-25T06:27:10.102Z,19.60
2018-04-25T06:29:39.506Z,20.00
2018-04-25T06:32:06.981Z,20.30
2018-04-25T06:34:34.468Z,21.00
2018-04-25T06:37:01.935Z,21.00
2018-04-25T06:39:29.460Z,21.90
2018-04-25T06:41:56.870Z,21.20
2018-04-25T06:44:24.337Z,21.50
2018-04-25T06:46:51.811Z,21.10
2018-04-25T06:49:19.282Z,22.10
2018-04-25T06:51:46.763Z,21.00
2018-04-25T06:54:14.234Z,21.00
2018-04-25T06:56:41.709Z,22.00
2018-04-25T06:59:09.199Z,22.00
2018-04-25T07:01:37.453Z,22.10
2018-04-25T07:04:04.928Z,22.20
2018-04-25T07:06:32.399Z,22.00
2018-04-25T07:08:59.874Z,22.00
2018-04-25T07:11:27.345Z,22.00
2018-04-25T07:13:54.810Z,21.90
2018-04-25T07:16:22.291Z,22.10
2018-04-25T07:18:49.757Z,22.30
2018-04-25T07:21:17.229Z,22.90
2018-04-25T07:23:44.777Z,22.10
2018-04-25T07:26:12.169Z,22.60
2018-04-25T07:28:39.640Z,22.40
2018-04-25T07:31:07.918Z,22.60
2018-04-25T07:33:35.394Z,22.50
2018-04-25T07:36:02.867Z,22.50
2018-04-25T07:38:30.330Z,23.30
2018-04-25T07:40:57.807Z,22.80
2018-04-25T07:43:25.266Z,22.90
2018-04-25T07:45:53.967Z,22.70
2018-04-25T07:48:21.409Z,23.00
2018-04-25T07:50:48.887Z,23.40
2018-04-25T07:53:16.360Z,23.00
2018-04-25T07:55:44.647Z,23.50
2018-04-25T07:58:12.113Z,23.40
2018-04-25T08:00:40.373Z,24.10
2018-04-25T08:03:07.834Z,24.00
2018-04-25T08:05:35.310Z,24.10
2018-04-25T08:08:02.779Z,24.90
2018-04-25T08:10:30.249Z,24.70
2018-04-25T08:13:09.686Z,25.40
2018-04-25T08:15:49.826Z,26.40
2018-04-25T08:18:29.945Z,25.90
2018-04-25T08:21:20.860Z,25.90
2018-04-25T08:23:48.365Z,25.40
2018-04-25T08:26:15.807Z,25.30
2018-04-25T08:28:43.273Z,25.90
2018-04-25T08:31:10.739Z,25.80
2018-04-25T08:33:38.297Z,25.70
2018-04-25T08:36:05.694Z,26.70
2018-04-25T08:38:33.161Z,27.00
2018-04-25T08:41:00.630Z,26.90
2018-04-25T08:43:28.149Z,26.50
2018-04-25T08:45:55.615Z,26.10
2018-04-25T08:48:23.093Z,26.20
2018-04-25T08:50:50.555Z,25.70
2018-04-25T08:53:18.022Z,24.80
2018-04-25T08:55:45.506Z,23.50
2018-04-25T08:58:12.979Z,23.00
2018-04-25T09:00:41.258Z,23.10
2018-04-25T09:03:08.730Z,23.10
2018-04-25T09:05:36.185Z,23.50
2018-04-25T09:08:04.596Z,23.40
2018-04-25T09:10:32.053Z,24.70
2018-04-25T09:12:59.523Z,25.00
2018-04-25T09:15:27.000Z,24.70
2018-04-25T09:17:54.454Z,24.60
2018-04-25T09:20:21.982Z,25.00
2018-04-25T09:22:49.397Z,26.10
2018-04-25T09:25:16.865Z,25.70
2018-04-25T09:27:44.334Z,25.90
2018-04-25T09:30:11.874Z,26.50
2018-04-25T09:32:39.350Z,26.20
2018-04-25T09:35:07.586Z,23.50
2018-04-25T09:37:35.831Z,22.90
2018-04-25T09:40:03.308Z,22.90
2018-04-25T09:42:30.778Z,22.60
2018-04-25T09:44:58.242Z,22.80
2018-04-25T09:47:25.714Z,24.10
2018-04-25T09:49:54.433Z,24.80
2018-04-25T09:52:21.898Z,25.50
2018-04-25T09:54:49.361Z,25.10
2018-04-25T09:57:16.835Z,24.60
2018-04-25T09:59:44.293Z,24.10
2018-04-25T10:02:17.350Z,24.30
2018-04-25T10:04:44.813Z,23.90
2018-04-25T10:07:13.046Z,23.70
2018-04-25T10:09:40.509Z,23.70
2018-04-25T10:12:08.750Z,22.10
2018-04-25T10:14:36.991Z,22.30
2018-04-25T10:17:04.455Z,22.30
2018-04-25T10:19:31.923Z,22.90
2018-04-25T10:21:59.389Z,24.10
2018-04-25T10:24:27.132Z,24.70
2018-04-25T10:26:55.378Z,25.60
2018-04-25T10:29:22.846Z,25.60
2018-04-25T10:31:50.310Z,24.20
2018-04-25T10:34:17.790Z,23.90
2018-04-25T10:36:45.264Z,23.80
2018-04-25T10:39:13.445Z,24.00
2018-04-25T10:41:40.912Z,24.60
2018-04-25T10:44:08.398Z,23.90
2018-04-25T10:46:35.856Z,23.60
2018-04-25T10:49:03.345Z,24.70
2018-04-25T10:51:30.848Z,25.10
2018-04-25T10:53:58.329Z,25.70
2018-04-25T10:56:25.806Z,25.40
2018-04-25T10:58:53.278Z,26.50
2018-04-25T11:01:20.738Z,25.90
2018-04-25T11:03:48.205Z,26.00
2018-04-25T11:06:15.676Z,26.30
2018-04-25T11:08:43.167Z,26.60
2018-04-25T11:11:10.646Z,26.80
2018-04-25T11:13:38.117Z,27.00
2018-04-25T11:16:06.346Z,27.00
2018-04-25T11:18:34.582Z,25.70
2018-04-25T11:21:02.056Z,25.70
2018-04-25T11:23:29.526Z,26.30
2018-04-25T11:25:56.999Z,26.60
2018-04-25T11:28:24.522Z,26.10
2018-04-25T11:30:52.885Z,25.90
2018-04-25T11:33:20.410Z,25.70
2018-04-25T11:35:47.903Z,24.80
2018-04-25T11:38:15.432Z,24.90
2018-04-25T11:40:43.002Z,25.80
2018-04-25T11:43:10.553Z,25.40
2018-04-25T11:45:38.036Z,24.90
2018-04-25T11:48:05.523Z,23.90
2018-04-25T11:50:36.505Z,24.50
2018-04-25T11:53:03.978Z,25.70
2018-04-25T11:58:23.627Z,26.60
2018-04-25T12:00:51.077Z,26.60
2018-04-25T12:03:18.732Z,27.20
2018-04-25T12:05:46.213Z,27.40
2018-04-25T12:08:13.694Z,27.50
2018-04-25T12:10:41.165Z,26.60
2018-04-25T12:13:08.698Z,27.00
2018-04-25T12:15:36.857Z,27.60
2018-04-25T12:18:04.343Z,26.90
2018-04-25T12:20:31.812Z,25.80
2018-04-25T12:22:59.287Z,24.70
2018-04-25T12:25:26.762Z,24.00
2018-04-25T12:27:55.062Z,24.60
2018-04-25T12:30:22.522Z,25.10
2018-04-25T12:32:49.993Z,25.90
2018-04-25T12:35:17.484Z,26.30
2018-04-25T12:37:44.954Z,26.20
2018-04-25T12:40:12.462Z,26.60
2018-04-25T12:45:38.975Z,26.50
2018-04-25T12:48:06.449Z,26.70
2018-04-25T12:50:33.919Z,27.50
2018-04-25T12:53:01.400Z,27.40
2018-04-25T12:55:28.862Z,26.90
2018-04-25T12:57:56.329Z,26.60
2018-04-25T13:00:23.805Z,27.10
2018-04-25T13:02:51.271Z,27.30
2018-04-25T13:05:18.755Z,27.40
2018-04-25T13:07:46.273Z,27.00
2018-04-25T13:10:14.546Z,26.50
2018-04-25T13:12:42.058Z,26.50
2018-04-25T13:15:09.602Z,26.80
2018-04-25T13:17:36.997Z,27.00
2018-04-25T13:20:04.478Z,27.30
2018-04-25T13:22:31.937Z,27.30
2018-04-25T13:24:59.423Z,27.70
2018-04-25T13:27:26.885Z,28.00
2018-04-25T13:29:54.350Z,27.30
2018-04-25T13:32:21.831Z,27.00
2018-04-25T13:34:49.294Z,27.00
2018-04-25T13:37:16.774Z,26.90
2018-04-25T13:39:46.470Z,27.20
2018-04-25T13:42:13.966Z,27.10
2018-04-25T13:44:41.446Z,27.10
2018-04-25T13:47:08.944Z,27.60
2018-04-25T13:49:36.430Z,27.50
2018-04-25T13:52:04.714Z,26.70
2018-04-25T13:54:32.946Z,26.50
2018-04-25T13:57:00.413Z,26.50
2018-04-25T13:59:27.890Z,26.70
2018-04-25T14:01:55.574Z,26.50
2018-04-25T14:04:23.045Z,26.40
2018-04-25T14:06:50.556Z,26.20
2018-04-25T14:09:18.790Z,26.50
2018-04-25T14:11:46.267Z,26.50
2018-04-25T14:14:13.758Z,26.50
2018-04-25T14:16:41.255Z,26.60
2018-04-25T14:19:09.784Z,26.80
2018-04-25T14:21:37.563Z,27.10
2018-04-25T14:24:05.035Z,26.60
2018-04-25T14:26:32.505Z,26.70
2018-04-25T14:28:59.987Z,26.20
2018-04-25T14:31:31.611Z,26.30
2018-04-25T14:33:59.853Z,26.30
2018-04-25T14:36:27.321Z,26.30
2018-04-25T14:39:11.990Z,25.70
2018-04-25T14:41:39.500Z,25.80
2018-04-25T14:44:06.975Z,25.90
2018-04-25T14:46:34.450Z,25.10
2018-04-25T14:49:10.154Z,24.20
2018-04-25T14:51:37.645Z,24.20
2018-04-25T14:54:05.928Z,24.30
2018-04-25T14:56:33.406Z,24.20
2018-04-25T14:59:00.923Z,24.20
2018-04-25T15:01:39.518Z,24.30
2018-04-25T15:04:07.242Z,24.30
2018-04-25T15:06:34.801Z,24.30
2018-04-25T15:09:03.042Z,24.30
2018-04-25T15:11:43.118Z,24.30
2018-04-25T15:14:10.615Z,24.20
2018-04-25T15:16:38.082Z,24.20
2018-04-25T15:19:05.550Z,24.00
2018-04-25T15:21:33.023Z,24.00
2018-04-25T15:24:00.565Z,23.80
2018-04-25T15:26:28.044Z,23.50
2018-04-25T15:28:57.005Z,23.40
2018-04-25T15:31:24.470Z,23.30
2018-04-25T15:33:52.028Z,23.30
2018-04-25T15:36:20.254Z,23.20
2018-04-25T15:38:47.744Z,23.20
2018-04-25T15:41:15.246Z,23.20
2018-04-25T15:43:42.837Z,23.10
2018-04-25T15:46:10.318Z,23.00
2018-04-25T15:48:37.872Z,23.10
2018-04-25T15:51:05.374Z,23.10
2018-04-25T15:53:32.955Z,23.00
2018-04-25T15:56:01.203Z,23.10
2018-04-25T15:58:32.461Z,23.20
2018-04-25T16:01:00.769Z,23.10
2018-04-25T16:03:28.489Z,23.00
2018-04-25T16:05:55.961Z,22.90
2018-04-25T16:08:24.368Z,22.80
2018-04-25T16:10:51.986Z,22.80
2018-04-25T16:13:19.453Z,22.70
2018-04-25T16:15:46.967Z,22.60
2018-04-25T16:18:14.436Z,22.50
2018-04-25T16:20:42.041Z,22.40
2018-04-25T16:23:10.673Z,22.30
2018-04-25T16:25:39.032Z,22.30
2018-04-25T16:28:06.575Z,22.30
2018-04-25T16:30:34.045Z,22.30
2018-04-25T16:33:01.543Z,22.10
2018-04-25T16:35:30.321Z,21.90
2018-04-25T16:37:57.791Z,21.90
2018-04-25T16:40:25.289Z,21.80
2018-04-25T16:43:09.790Z,21.70
2018-04-25T16:45:37.271Z,21.70
2018-04-25T16:48:04.733Z,21.40
2018-04-25T16:50:32.232Z,21.10
2018-04-25T16:53:00.897Z,21.00
2018-04-25T16:55:41.586Z,21.00
2018-04-25T16:58:09.859Z,21.10
2018-04-25T17:00:37.391Z,21.10
2018-04-25T17:03:04.983Z,21.00
2018-04-25T17:05:32.616Z,21.00
2018-04-25T17:08:00.082Z,20.90
2018-04-25T17:10:27.542Z,20.90
2018-04-25T17:12:59.467Z,20.70
2018-04-25T17:15:27.697Z,20.80
2018-04-25T17:17:55.198Z,20.70
2018-04-25T17:20:22.685Z,20.90
2018-04-25T17:22:50.923Z,20.80
2018-04-25T17:25:19.171Z,20.70
2018-04-25T17:27:47.437Z,20.50
2018-04-25T17:30:14.895Z,20.50
2018-04-25T17:32:42.763Z,20.20
2018-04-25T17:35:10.488Z,20.20
2018-04-25T17:37:41.839Z,20.10
2018-04-25T17:40:10.090Z,19.80
2018-04-25T17:42:37.569Z,19.80
2018-04-25T17:45:05.033Z,19.80
2018-04-25T17:47:32.575Z,19.80
2018-04-25T17:50:00.535Z,19.70
2018-04-25T17:52:28.012Z,19.60
2018-04-25T17:54:55.474Z,19.50
2018-04-25T17:57:23.047Z,19.40
2018-04-25T17:59:50.519Z,19.30
2018-04-25T18:02:23.725Z,19.20
2018-04-25T18:04:51.211Z,19.00
2018-04-25T18:07:18.779Z,18.90
2018-04-25T18:09:46.237Z,18.80
2018-04-25T18:12:14.730Z,18.70
2018-04-25T18:14:42.206Z,18.60
2018-04-25T18:17:09.764Z,18.40
2018-04-25T18:19:37.214Z,18.30
2018-04-25T18:22:05.453Z,18.00
2018-04-25T18:24:32.921Z,17.90
2018-04-25T18:27:00.395Z,17.80
2018-04-25T18:29:27.866Z,17.70
2018-04-25T18:31:57.383Z,17.50
2018-04-25T18:34:24.917Z,17.30
2018-04-25T18:36:52.650Z,17.00
2018-04-25T18:39:20.122Z,16.80
2018-04-25T18:41:47.617Z,16.60
2018-04-25T18:44:15.858Z,16.20
2018-04-25T18:46:43.517Z,16.20
2018-04-25T18:49:13.473Z,16.20
2018-04-25T18:51:41.692Z,16.10
2018-04-25T18:54:09.973Z,16.00
2018-04-25T18:56:38.244Z,15.90
2018-04-25T18:59:05.709Z,15.90
2018-04-25T19:01:33.182Z,15.80
2018-04-25T19:04:00.952Z,15.80
2018-04-25T19:06:29.526Z,15.80
2018-04-25T19:08:56.991Z,15.80
2018-04-25T19:11:24.457Z,15.90
2018-04-25T19:13:51.930Z,16.00
2018-04-25T19:16:19.421Z,16.10
2018-04-25T19:18:46.922Z,16.20
2018-04-25T19:21:14.629Z,16.20
2018-04-25T19:26:40.698Z,16.10
2018-04-25T19:29:08.228Z,16.00
2018-04-25T19:31:35.845Z,16.00
2018-04-25T19:34:03.318Z,16.00
2018-04-25T19:36:30.796Z,15.90
2018-04-25T19:38:58.268Z,15.80
2018-04-25T19:41:27.501Z,15.80
2018-04-25T19:43:54.977Z,15.80
2018-04-25T19:46:22.449Z,15.70
2018-04-25T19:48:49.929Z,15.70
2018-04-25T19:51:18.687Z,15.60
2018-04-25T19:53:46.417Z,15.50
2018-04-25T19:56:14.883Z,15.40
2018-04-25T19:58:42.424Z,15.40
2018-04-25T20:01:09.936Z,15.30
2018-04-25T20:03:37.406Z,15.20
2018-04-25T20:06:04.900Z,15.10
2018-04-25T20:08:33.213Z,15.00
2018-04-25T20:11:00.629Z,15.00
2018-04-25T20:13:28.105Z,15.00
2018-04-25T20:15:55.574Z,14.90
2018-04-25T20:18:23.082Z,14.90
2018-04-25T20:20:50.567Z,14.90
2018-04-25T20:23:18.147Z,14.90
2018-04-25T20:25:45.680Z,14.80
2018-04-25T20:28:13.159Z,14.80
2018-04-25T20:30:41.512Z,14.70
2018-04-25T20:33:10.994Z,14.70
2018-04-25T20:35:38.550Z,14.70
2018-04-25T20:38:06.033Z,14.70
2018-04-25T20:40:33.502Z,14.70
2018-04-25T20:43:01.122Z,14.70
2018-04-25T20:45:28.706Z,14.70
2018-04-25T20:47:58.327Z,15.00
2018-04-25T20:50:26.366Z,14.90
2018-04-25T20:52:53.903Z,15.10
2018-04-25T20:55:22.138Z,15.10
2018-04-25T20:57:49.615Z,15.00
2018-04-25T21:00:17.090Z,15.00
2018-04-25T21:02:44.570Z,15.10
2018-04-25T21:05:12.053Z,15.20
2018-04-25T21:07:39.561Z,15.10
2018-04-25T21:10:07.026Z,15.10
2018-04-25T21:12:34.532Z,15.10
2018-04-25T21:15:02.011Z,15.00
2018-04-25T21:17:29.564Z,14.90
2018-04-25T21:19:56.949Z,14.80
2018-04-25T21:22:24.446Z,14.90
2018-04-25T21:24:51.930Z,14.90
2018-04-25T21:27:19.382Z,15.00
2018-04-25T21:29:47.627Z,14.90
2018-04-25T21:32:15.116Z,14.80
2018-04-25T21:34:42.593Z,14.80
2018-04-25T21:37:10.080Z,14.70
2018-04-25T21:39:38.309Z,14.60
2018-04-25T21:42:05.790Z,14.60
2018-04-25T21:44:33.254Z,14.60
2018-04-25T21:47:00.726Z,14.60
2018-04-25T21:49:28.219Z,14.60
2018-04-25T21:51:58.034Z,14.50
2018-04-25T21:54:26.220Z,14.40
2018-04-25T21:56:55.717Z,14.50
2018-04-25T21:59:25.289Z,14.50
2018-04-25T22:01:52.758Z,14.50
2018-04-25T22:04:20.228Z,14.50
2018-04-25T22:06:47.707Z,14.30
2018-04-25T22:09:15.169Z,14.10
2018-04-25T22:11:42.687Z,14.20
2018-04-25T22:14:10.202Z,14.20
2018-04-25T22:16:38.454Z,14.10
2018-04-25T22:19:05.927Z,14.10
2018-04-25T22:21:33.402Z,14.10
2018-04-25T22:24:00.883Z,14.10
2018-04-25T22:26:28.380Z,14.10
2018-04-25T22:28:55.851Z,14.10
2018-04-25T22:31:23.322Z,14.10
2018-04-25T22:33:50.786Z,14.00
2018-04-25T22:36:18.270Z,13.90
2018-04-25T22:38:46.517Z,13.90
2018-04-25T22:41:20.493Z,13.90
2018-04-25T22:43:48.727Z,13.90
2018-04-25T22:46:16.204Z,13.80
2018-04-25T22:48:43.685Z,13.90
2018-04-25T22:51:11.166Z,13.80
2018-04-25T22:53:38.648Z,13.70
2018-04-25T22:56:06.895Z,13.70
2018-04-25T22:58:34.405Z,13.60
2018-04-25T23:01:01.836Z,13.60
2018-04-25T23:03:29.323Z,13.60
2018-04-25T23:05:56.802Z,13.60
2018-04-25T23:08:24.303Z,13.50
2018-04-25T23:10:51.798Z,13.60
2018-04-25T23:13:19.305Z,13.60
2018-04-25T23:15:46.845Z,13.70
2018-04-25T23:18:14.393Z,13.70
2018-04-25T23:20:41.894Z,13.80
2018-04-25T23:26:13.269Z,13.70
2018-04-25T23:28:40.844Z,13.70
2018-04-25T23:31:08.621Z,13.70
2018-04-25T23:33:36.160Z,13.80
2018-04-25T23:36:04.420Z,13.70
2018-04-25T23:38:31.945Z,13.70
2018-04-25T23:40:59.493Z,13.60
2018-04-25T23:43:27.769Z,13.60
2018-04-25T23:45:55.313Z,13.60
2018-04-25T23:48:22.871Z,13.60
2018-04-25T23:50:50.393Z,13.60
2018-04-25T23:53:18.669Z,13.40
2018-04-25T23:55:46.226Z,13.40
2018-04-25T23:58:13.738Z,13.40
